Latest Weather Observations for Willis Island

IDQ60801

Issued at 6:22 pm EST Sunday 22 May 2022 (issued every 10 minutes, with the page automatically refreshed every 10 minutes)

About weather observations | Map of weather stations | Latest weather observations for QLD | Other Formats
Station Details ID: 200283 Name: WILLIS ISLAND Lat: -16.29 Lon: 149.97 Height: 9.29 m
Data from the previous 72 hours. | See also: Recent months at Willis Island
Date/Time
EST
Temp
°C
App
Temp
°C
Dew
Point
°C
Rel
Hum
%
Delta-T
°C
Wind Press
QNH
hPa
Press
MSL
hPa
Rain since
9am
mm
Dir  Spd
km/h
Gust
km/h
Spd
kts
Gust
kts
22/06:00pm 26.5 26.7 22.8 80 2.5 SSE 26 30 14 16 1010.8 1010.7 0.0
22/05:30pm 26.5 27.4 22.6 79 2.6 SE 22 28 12 15 1010.6 1010.5 0.0
22/05:00pm 26.8 27.2 21.8 74 3.3 SSE 22 28 12 15 1010.4 1010.3 0.0
22/04:30pm 26.9 27.1 22.1 75 3.2 SSE 24 28 13 15 1010.3 1010.2 0.0
22/04:00pm 26.9 27.0 21.9 74 3.4 SSE 24 28 13 15 1010.2 1010.1 0.0
22/03:30pm 27.2 27.3 21.9 73 3.6 SE 24 28 13 15 1010.0 1009.9 0.0
22/03:00pm 28.2 28.5 22.2 70 4.1 SSE 24 30 13 16 1009.6 1009.5 0.0
22/02:30pm 28.2 28.0 22.0 69 4.2 SSE 26 30 14 16 1009.7 1009.6 0.0
22/02:00pm 28.0 27.9 22.2 70 3.9 S 26 32 14 17 1009.8 1009.7 0.0
22/01:30pm 27.9 28.4 22.6 73 3.6 S 24 28 13 15 1010.2 1010.1 0.0
22/01:00pm 28.8 29.6 22.5 68 4.3 S 22 26 12 14 1010.6 1010.5 0.0
22/12:30pm 28.3 28.4 21.8 68 4.4 S 24 30 13 16 1011.0 1010.9 0.0
22/12:00pm 28.4 28.8 22.4 70 4.1 S 24 30 13 16 1011.2 1011.1 0.0
22/11:30am 28.4 29.1 22.9 72 3.7 S 24 28 13 15 1011.4 1011.3 0.0
22/11:00am 28.1 28.2 22.6 72 3.7 S 26 30 14 16 1011.8 1011.7 0.0
22/10:30am 28.2 29.0 22.4 71 3.9 S 22 28 12 15 1012.1 1012.0 0.0
22/10:00am 28.4 29.2 22.4 70 4.1 SSE 22 28 12 15 1012.3 1012.2 0.0
22/09:30am 27.9 28.2 22.2 71 3.8 SSE 24 28 13 15 1012.5 1012.4 0.0
22/09:00am 27.7 28.8 22.4 73 3.6 SSE 20 26 11 14 1012.2 1012.1 0.0
22/08:30am 27.4 28.0 22.1 73 3.6 S 22 26 12 14 1012.2 1012.1 0.0
22/08:00am 27.1 27.7 22.1 74 3.4 SSE 22 26 12 14 1012.2 1012.1 0.0
22/07:30am 26.8 27.6 21.8 74 3.3 SSE 20 26 11 14 1012.0 1011.9 0.0
22/07:00am 26.4 27.1 21.6 75 3.2 S 20 26 11 14 1011.9 1011.8 0.0
22/06:30am 26.1 26.9 21.7 77 2.9 SSE 20 26 11 14 1011.6 1011.5 0.0
22/06:00am 25.9 26.6 21.6 77 2.9 SSE 20 24 11 13 1011.3 1011.2 0.0
22/05:30am 26.0 26.8 21.7 77 2.9 SSE 20 24 11 13 1011.1 1011.0 0.0
22/05:00am 25.9 26.6 21.6 77 2.9 SSE 20 26 11 14 1010.9 1010.8 0.0
22/04:30am 26.0 26.5 21.9 78 2.7 SSE 22 26 12 14 1010.9 1010.8 0.0
22/04:00am 26.1 26.8 22.2 79 2.6 S 22 26 12 14 1011.0 1010.9 0.0
22/03:30am 26.1 27.1 22.2 79 2.6 SSE 20 24 11 13 1011.0 1010.9 0.0
22/03:00am 26.3 27.6 22.6 80 2.5 S 20 24 11 13 1011.1 1011.0 0.0
22/02:30am 26.3 27.4 22.4 79 2.6 SSE 20 24 11 13 1011.4 1011.3 0.0
22/02:00am 26.5 28.2 23.0 81 2.4 SSE 19 24 10 13 1011.6 1011.5 0.0
22/01:30am 26.2 28.1 22.7 81 2.4 S 17 20 9 11 1011.9 1011.8 0.0
22/01:00am 26.0 28.1 22.5 81 2.4 SSE 15 19 8 10 1012.1 1012.0 0.0
22/12:30am 25.9 28.4 22.4 81 2.4 SE 13 17 7 9 1012.3 1012.2 0.0
22/12:00am 26.1 28.6 22.4 80 2.5 SE 13 17 7 9 1012.4 1012.3 0.0
 
Date/Time
EST
Temp
°C
App
Temp
°C
Dew
Point
°C
Rel
Hum
%
Delta-T
°C
Wind Press
QNH
hPa
Press
MSL
hPa
Rain since
9am
mm
Dir  Spd
km/h
Gust
km/h
Spd
kts
Gust
kts
21/11:30pm 26.1 27.8 22.4 80 2.5 SE 17 19 9 10 1012.6 1012.5 0.0
21/11:00pm 26.2 27.6 22.5 80 2.5 SSE 19 24 10 13 1012.7 1012.6 0.0
21/10:30pm 26.4 27.7 22.7 80 2.5 SSE 20 24 11 13 1012.7 1012.6 0.0
21/10:00pm 26.3 27.9 22.8 81 2.4 SSE 19 22 10 12 1012.9 1012.8 0.0
21/09:30pm 26.4 27.7 22.7 80 2.5 SSE 20 24 11 13 1013.0 1012.9 0.0
21/09:00pm 26.5 27.6 22.3 78 2.8 SE 20 22 11 12 1013.1 1013.0 0.0
21/08:30pm 26.6 27.7 22.4 78 2.8 SE 20 24 11 13 1012.8 1012.7 0.0
21/08:00pm 26.6 27.5 22.0 76 3.1 SE 20 24 11 13 1012.5 1012.4 0.0
21/07:30pm 26.6 27.1 22.0 76 3.1 SE 22 26 12 14 1012.2 1012.1 0.0
21/07:00pm 26.6 27.3 22.2 77 3.0 SE 22 28 12 15 1012.0 1011.9 0.0
21/06:30pm 26.7 27.5 22.5 78 2.8 SE 22 26 12 14 1011.7 1011.6 0.0
21/06:00pm 26.8 27.8 22.2 76 3.1 SE 20 24 11 13 1011.3 1011.2 0.0
21/05:30pm 27.0 28.1 22.4 76 3.1 SE 20 26 11 14 1011.0 1010.9 0.0
21/05:00pm 27.2 27.9 21.5 71 3.8 SE 20 24 11 13 1010.8 1010.7 0.0
21/04:30pm 27.8 28.8 21.8 70 4.0 SE 19 22 10 12 1010.8 1010.7 0.0
21/04:00pm 27.7 28.5 21.7 70 4.0 SE 20 24 11 13 1010.7 1010.6 0.0
21/03:30pm 27.8 29.0 22.1 71 3.8 SE 19 22 10 12 1010.6 1010.5 0.0
21/03:00pm 29.0 30.8 22.5 68 4.4 SE 17 19 9 10 1010.6 1010.5 0.0
21/02:30pm 29.0 30.6 22.2 66 4.6 SE 17 20 9 11 1010.7 1010.6 0.0
21/02:00pm 29.4 31.9 22.4 66 4.8 SE 13 19 7 10 1011.0 1010.9 0.0
21/01:30pm 29.4 31.6 22.6 67 4.6 SE 15 17 8 9 1011.2 1011.1 0.0
21/01:00pm 30.0 32.4 22.9 65 4.9 ESE 15 20 8 11 1011.5 1011.4 0.0
21/12:30pm 29.7 31.7 22.9 67 4.6 SE 17 20 9 11 1011.9 1011.8 0.0
21/12:00pm 29.3 31.1 22.5 67 4.6 SE 17 22 9 12 1012.3 1012.2 0.0
21/11:30am 28.9 31.5 22.6 69 4.3 SE 13 17 7 9 1012.8 1012.7 0.0
21/11:00am 29.3 31.9 23.3 70 4.1 SE 15 20 8 11 1013.1 1013.0 0.0
21/10:30am 28.6 30.9 22.8 71 3.9 SE 15 19 8 10 1013.3 1013.2 0.0
21/10:00am 28.9 31.9 23.3 72 3.8 SE 13 17 7 9 1013.4 1013.3 0.0
21/09:30am 28.2 31.1 22.4 71 3.9 SE 11 15 6 8 1013.4 1013.3 0.0
21/09:00am 28.1 31.1 22.6 72 3.7 ESE 11 13 6 7 1013.5 1013.4 0.0
21/08:30am 27.8 31.0 22.3 72 3.7 E 9 11 5 6 1013.4 1013.3 0.0
21/08:00am 26.9 30.2 22.5 77 3.0 NE 9 13 5 7 1013.1 1013.0 0.0
21/07:30am 25.9 28.0 22.4 81 2.4 NNE 15 17 8 9 1013.1 1013.0 0.0
21/07:00am 25.0 26.4 21.9 83 2.1 NNE 17 20 9 11 1013.1 1013.0 0.0
21/06:30am 24.7 23.1 21.8 84 1.9 NE 33 39 18 21 1012.9 1012.8 0.0
21/06:00am 24.7 25.3 21.4 82 2.2 NE 20 24 11 13 1012.7 1012.6 0.0
21/05:30am 25.0 26.4 21.1 79 2.6 NE 15 19 8 10 1012.5 1012.4 0.0
21/05:00am 25.0 25.5 21.9 83 2.1 ENE 22 28 12 15 1012.4 1012.3 0.0
21/04:30am 25.2 24.0 22.3 84 1.9 E 32 35 17 19 1012.3 1012.2 0.0
21/04:00am 24.1 24.0 21.4 85 1.8 ENE 24 28 13 15 1012.3 1012.2 0.0
21/03:30am 25.2 24.2 22.7 86 1.7 ESE 32 35 17 19 1012.0 1011.9 0.0
21/03:00am 25.6 27.7 23.1 86 1.7 ESE 17 24 9 13 1012.0 1011.9 0.0
21/02:30am 25.3 24.8 22.8 86 1.7 NE 30 37 16 20 1012.1 1012.0 0.0
21/02:00am 25.7 25.8 23.2 86 1.7 ESE 28 32 15 17 1012.2 1012.1 0.0
21/01:30am 25.6 25.0 22.7 84 2.0 ESE 30 33 16 18 1012.5 1012.4 0.0
21/01:00am 26.2 27.0 23.1 83 2.1 SE 24 32 13 17 1012.6 1012.5 0.0
21/12:30am 26.5 26.8 23.0 81 2.4 SE 26 30 14 16 1012.8 1012.7 0.0
21/12:00am 26.6 27.2 23.5 83 2.1 ESE 26 32 14 17 1013.0 1012.9 0.0
 
Date/Time
EST
Temp
°C
App
Temp
°C
Dew
Point
°C
Rel
Hum
%
Delta-T
°C
Wind Press
QNH
hPa
Press
MSL
hPa
Rain since
9am
mm
Dir  Spd
km/h
Gust
km/h
Spd
kts
Gust
kts
20/11:30pm 26.7 27.5 22.5 78 2.8 ESE 22 24 12 13 1013.2 1013.1 0.0
20/11:00pm 26.7 27.4 23.0 80 2.5 ESE 24 28 13 15 1013.4 1013.3 0.0
20/10:30pm 26.7 27.7 22.8 79 2.6 ESE 22 26 12 14 1013.4 1013.3 0.0
20/10:00pm 26.9 27.3 23.2 80 2.5 SE 26 32 14 17 1013.7 1013.6 0.0
20/09:30pm 26.9 27.4 22.7 78 2.8 ESE 24 30 13 16 1013.8 1013.7 0.0
20/09:00pm 26.9 27.6 22.9 79 2.7 ESE 24 28 13 15 1013.8 1013.7 0.0
20/08:30pm 27.0 27.7 23.0 79 2.7 ESE 24 28 13 15 1013.7 1013.6 0.0
20/08:00pm 27.0 27.5 22.6 77 3.0 ESE 24 28 13 15 1013.5 1013.4 0.0
20/07:30pm 26.7 27.4 23.0 80 2.5 SE 24 28 13 15 1013.3 1013.2 0.0
20/07:00pm 26.9 28.2 22.7 78 2.8 ESE 20 24 11 13 1013.1 1013.0 0.0
20/06:30pm 26.9 27.7 23.2 80 2.5 SE 24 28 13 15 1012.9 1012.8 0.0
20/06:00pm 27.1 28.4 23.3 80 2.6 SE 22 28 12 15 1012.5 1012.4 0.0
20/05:30pm 27.0 28.3 22.6 77 3.0 ESE 20 24 11 13 1012.3 1012.2 0.0
20/05:00pm 27.2 28.4 22.2 74 3.4 SE 19 22 10 12 1012.1 1012.0 0.0
20/04:30pm 27.8 29.0 22.1 71 3.8 ESE 19 22 10 12 1012.0 1011.9 0.0
20/04:00pm 28.0 29.6 22.2 70 3.9 SE 17 20 9 11 1011.9 1011.8 0.0
20/03:30pm 28.6 30.3 23.1 72 3.8 SE 19 22 10 12 1011.7 1011.6 0.0
20/03:00pm 28.3 30.2 22.8 72 3.7 S 17 20 9 11 1011.7 1011.6 0.0
20/02:30pm 29.1 30.4 22.3 66 4.6 SE 19 28 10 15 1011.8 1011.7 0.0
20/02:00pm 29.5 31.8 22.7 67 4.6 ESE 15 20 8 11 1011.9 1011.8 0.0
20/01:30pm 29.5 31.4 22.7 67 4.6 ESE 17 20 9 11 1012.2 1012.1 0.0
20/01:00pm 29.8 31.1 22.3 64 5.1 ESE 19 24 10 13 1012.6 1012.5 0.0
20/12:30pm 29.9 31.5 23.3 67 4.5 ESE 20 22 11 12 1013.0 1012.9 0.0
20/12:00pm 29.5 30.5 22.2 65 4.9 ESE 20 26 11 14 1013.4 1013.3 0.0
20/11:30am 29.6 31.2 22.8 67 4.6 ESE 19 20 10 11 1013.7 1013.6 0.0
20/11:00am 29.3 31.1 23.3 70 4.1 ESE 19 20 10 11 1014.0 1013.9 0.0
20/10:30am 28.8 30.2 22.5 68 4.3 ESE 19 22 10 12 1014.2 1014.1 0.0
20/10:00am 29.4 31.2 23.6 71 4.0 ESE 20 24 11 13 1014.3 1014.2 0.0
20/09:30am 29.3 31.1 23.5 71 4.0 ESE 20 24 11 13 1014.6 1014.5 0.0
20/09:00am 28.6 29.6 22.8 71 3.9 ESE 22 26 12 14 1014.6 1014.5 0.0
20/08:30am 28.2 29.0 23.1 74 3.5 ESE 24 28 13 15 1014.5 1014.4 0.0
20/08:00am 27.6 27.9 23.0 76 3.1 ESE 26 30 14 16 1014.3 1014.2 0.0
20/07:30am 27.3 28.2 23.3 79 2.7 ESE 24 30 13 16 1014.1 1014.0 0.0
20/07:00am 26.4 27.1 22.9 81 2.4 SE 24 28 13 15 1013.8 1013.7 0.0
20/06:30am 26.4 27.2 23.1 82 2.2 ESE 24 30 13 16 1013.5 1013.4 0.0
20/06:00am 26.2 26.4 22.7 81 2.4 ESE 26 30 14 16 1013.2 1013.1 0.0
20/05:30am 26.2 26.1 22.9 82 2.2 ESE 28 33 15 18 1012.9 1012.8 0.0
20/05:00am 26.0 27.5 22.7 82 2.2 SSE 19 24 10 13 1012.8 1012.7 0.0
20/04:30am 25.5 26.6 22.4 83 2.1 SSE 20 24 11 13 1012.6 1012.5 0.0
20/04:00am 25.8 26.9 22.3 81 2.4 E 20 33 11 18 1012.6 1012.5 0.0
20/03:30am 25.5 24.2 21.4 78 2.7 E 30 39 16 21 1012.5 1012.4 0.0
20/03:00am 26.1 26.1 22.4 80 2.5 SE 26 30 14 16 1012.6 1012.5 0.0
20/02:30am 26.4 26.9 22.7 80 2.5 SE 24 28 13 15 1012.9 1012.8 0.0
20/02:00am 26.3 26.8 22.6 80 2.5 SE 24 30 13 16 1013.2 1013.1 0.0
20/01:30am 26.4 26.9 22.7 80 2.5 SE 24 30 13 16 1013.4 1013.3 0.0
20/01:00am 26.4 26.8 22.5 79 2.6 SE 24 32 13 17 1013.9 1013.8 0.0
20/12:30am 26.3 26.3 22.4 79 2.6 SE 26 30 14 16 1014.0 1013.9 0.0
20/12:00am 26.4 27.1 22.9 81 2.4 E 24 28 13 15 1014.3 1014.2 0.0
 
Date/Time
EST
Temp
°C
App
Temp
°C
Dew
Point
°C
Rel
Hum
%
Delta-T
°C
Wind Press
QNH
hPa
Press
MSL
hPa
Rain since
9am
mm
Dir  Spd
km/h
Gust
km/h
Spd
kts
Gust
kts
19/11:30pm 26.4 26.6 22.7 80 2.5 ESE 26 32 14 17 1014.7 1014.6 0.0
19/11:00pm 26.4 26.5 22.5 79 2.6 ESE 26 32 14 17 1014.8 1014.7 0.0
19/10:30pm 26.4 26.2 22.7 80 2.5 ESE 28 32 15 17 1014.9 1014.8 0.0
19/10:00pm 26.4 26.1 22.5 79 2.6 ESE 28 33 15 18 1014.9 1014.8 0.0
19/09:30pm 26.2 26.0 22.7 81 2.4 ESE 28 33 15 18 1015.0 1014.9 0.0
19/09:00pm 26.3 26.9 22.8 81 2.4 ESE 24 28 13 15 1015.1 1015.0 0.0
19/08:30pm 26.5 25.5 21.9 76 3.1 ESE 30 33 16 18 1015.1 1015.0 0.0
19/08:00pm 26.6 26.2 22.4 78 2.8 ESE 28 33 15 18 1014.8 1014.7 0.0
19/07:30pm 26.6 26.2 22.4 78 2.8 ESE 28 32 15 17 1014.4 1014.3 0.0
19/07:00pm 26.6 26.1 22.2 77 3.0 ESE 28 33 15 18 1014.1 1014.0 0.0
19/06:30pm 26.6 26.2 22.4 78 2.8 ESE 28 33 15 18 1013.7 1013.6 0.0

Other formats

Comma delimited format used in spreadsheet applications
http://www.bom.gov.au/fwo/IDQ60801/IDQ60801.94299.axf

JavaScript Object Notation format (JSON) in row-major order
http://www.bom.gov.au/fwo/IDQ60801/IDQ60801.94299.json

Data quality

Most of these data are generated automatically and are frequently updated. Quality checks on data are not normally performed. It is possible for incorrect values to appear. Refer to information at About Latest Weather Observations and please check the disclaimer before using these data.